Time;durP1;ratioP1;P1;durP2;ratioP2;P2;SDS_P1;SDS_P2;PMS_P1;PMS_P2;Temp;Humidity;BMP_temperature;BMP_pressure;BME280_temperature;BME280_humidity;BME280_pressure;Samples;Min_cycle;Max_cycle;Signal;HPM_P1;HPM_P2
2023/08/22 00:00:29;;;;;;;8.18;5.70;;;17.30;99.90;;;;;;4850218;29;20049;-85
2023/08/22 00:02:56;;;;;;;8.73;5.80;;;17.30;99.90;;;;;;4836037;29;20058;-84
2023/08/22 00:05:23;;;;;;;7.28;6.28;;;17.30;99.90;;;;;;4827800;29;20057;-85
2023/08/22 00:07:49;;;;;;;7.30;5.40;;;17.40;99.90;;;;;;4819106;29;20081;-84
2023/08/22 00:10:15;;;;;;;8.40;5.53;;;17.40;99.90;;;;;;4834836;29;20052;-85
2023/08/22 00:12:42;;;;;;;6.50;4.72;;;17.40;99.90;;;;;;4832789;29;20052;-86
2023/08/22 00:15:12;;;;;;;7.57;5.00;;;17.40;99.90;;;;;;4827125;29;20049;-85
2023/08/22 00:17:38;;;;;;;5.97;5.35;;;17.40;99.90;;;;;;4852183;29;20498;-85
2023/08/22 00:20:07;;;;;;;7.32;5.72;;;17.40;99.90;;;;;;4846858;29;20144;-86
2023/08/22 00:22:36;;;;;;;8.27;6.40;;;17.40;99.90;;;;;;4813385;29;20046;-85
2023/08/22 00:25:02;;;;;;;6.72;5.63;;;17.40;99.90;;;;;;4817161;29;20944;-86
2023/08/22 00:27:28;;;;;;;5.88;5.28;;;17.40;99.90;;;;;;4861927;29;20049;-86
2023/08/22 00:29:56;;;;;;;8.90;6.25;;;17.40;99.90;;;;;;4828569;29;20048;-85
2023/08/22 00:32:22;;;;;;;7.78;6.55;;;17.40;99.90;;;;;;4834700;29;20092;-86
2023/08/22 00:34:47;;;;;;;8.85;6.63;;;17.50;99.90;;;;;;4828287;29;20579;-86
2023/08/22 00:37:13;;;;;;;7.35;6.15;;;17.50;99.90;;;;;;4823799;29;20068;-86
2023/08/22 00:39:39;;;;;;;8.30;6.40;;;17.60;99.90;;;;;;4825346;29;20117;-86
2023/08/22 00:42:05;;;;;;;7.40;6.07;;;17.50;99.90;;;;;;4808620;29;20081;-84
2023/08/22 00:44:30;;;;;;;8.88;7.07;;;17.50;99.90;;;;;;4830122;29;20466;-85
2023/08/22 00:46:56;;;;;;;8.60;7.40;;;17.60;99.90;;;;;;4814156;29;20084;-84
2023/08/22 00:49:23;;;;;;;10.77;7.82;;;17.60;99.90;;;;;;4815087;29;20060;-86
2023/08/22 00:51:49;;;;;;;9.85;7.85;;;17.50;99.90;;;;;;4836002;29;20466;-86
2023/08/22 00:54:16;;;;;;;8.27;6.45;;;17.50;99.90;;;;;;4837766;29;20081;-86
2023/08/22 00:56:43;;;;;;;7.32;6.63;;;17.50;99.90;;;;;;4855969;29;20053;-86
2023/08/22 00:59:09;;;;;;;8.38;6.57;;;17.50;99.90;;;;;;4828371;29;20140;-85
2023/08/22 01:01:35;;;;;;;9.10;6.03;;;17.50;99.90;;;;;;4828360;29;20058;-86
2023/08/22 01:04:01;;;;;;;7.53;6.20;;;17.40;99.90;;;;;;4847322;29;20053;-85
2023/08/22 01:06:36;;;;;;;8.57;5.35;;;17.40;99.90;;;;;;4832829;29;20409;-86
2023/08/22 01:09:10;;;;;;;8.90;5.70;;;17.40;99.90;;;;;;4828988;29;20053;-86
2023/08/22 01:11:40;;;;;;;7.20;5.93;;;17.40;99.90;;;;;;4827803;29;20041;-85
2023/08/22 01:14:09;;;;;;;9.00;6.30;;;17.30;99.90;;;;;;4826972;29;20041;-85
2023/08/22 01:16:36;;;;;;;7.90;6.03;;;17.30;99.90;;;;;;4824710;29;20152;-85
2023/08/22 01:19:05;;;;;;;7.25;6.22;;;17.30;99.90;;;;;;4836296;29;20053;-85
2023/08/22 01:21:34;;;;;;;6.68;5.43;;;17.30;99.90;;;;;;4829672;29;20052;-86
2023/08/22 01:24:02;;;;;;;5.82;5.22;;;17.30;99.90;;;;;;4828314;29;20041;-85
2023/08/22 01:26:28;;;;;;;6.43;5.13;;;17.30;99.90;;;;;;4818669;29;20784;-85
2023/08/22 01:29:01;;;;;;;7.80;6.25;;;17.20;99.90;;;;;;4828197;29;20053;-84
2023/08/22 01:31:43;;;;;;;8.20;5.97;;;17.20;99.90;;;;;;4827876;29;20045;-87
2023/08/22 01:34:17;;;;;;;8.38;6.32;;;17.20;99.90;;;;;;4831750;29;20124;-87
2023/08/22 01:36:45;;;;;;;9.02;6.05;;;17.10;99.90;;;;;;4829663;29;20045;-86
2023/08/22 01:39:15;;;;;;;7.13;6.15;;;17.10;99.90;;;;;;4830315;29;20037;-85
2023/08/22 01:41:41;;;;;;;8.73;6.10;;;17.00;99.90;;;;;;4813843;29;20091;-85
2023/08/22 01:44:07;;;;;;;8.57;6.20;;;17.00;99.90;;;;;;4841104;29;20041;-86
2023/08/22 01:46:33;;;;;;;8.77;6.47;;;17.00;99.90;;;;;;4843573;29;20470;-86
2023/08/22 01:48:59;;;;;;;9.25;6.25;;;17.00;99.90;;;;;;4801459;29;20045;-86
2023/08/22 01:51:24;;;;;;;7.28;6.50;;;17.10;99.90;;;;;;4836629;29;20054;-86
2023/08/22 01:53:50;;;;;;;7.07;6.05;;;17.00;99.90;;;;;;4839521;29;20106;-86
2023/08/22 01:56:16;;;;;;;8.68;6.63;;;17.00;99.90;;;;;;4798295;29;20722;-86
2023/08/22 01:58:41;;;;;;;9.68;6.50;;;17.00;99.90;;;;;;4847004;29;20737;-85
2023/08/22 02:01:11;;;;;;;9.48;6.65;;;17.00;99.90;;;;;;4805012;29;20054;-86
2023/08/22 02:03:39;;;;;;;9.07;6.80;;;17.00;99.90;;;;;;4824394;29;20493;-86
2023/08/22 02:06:05;;;;;;;7.93;6.80;;;16.90;99.90;;;;;;4840868;29;20037;-84
2023/08/22 02:08:31;;;;;;;8.43;6.43;;;16.90;99.90;;;;;;4836368;29;20052;-86
2023/08/22 02:10:57;;;;;;;7.80;6.22;;;16.90;99.90;;;;;;4827156;29;20053;-86
2023/08/22 02:13:22;;;;;;;9.55;6.82;;;16.80;99.90;;;;;;4799206;29;20055;-86
2023/08/22 02:15:48;;;;;;;10.10;6.78;;;16.80;99.90;;;;;;4807043;29;20120;-85
2023/08/22 02:18:14;;;;;;;8.38;6.68;;;16.80;99.90;;;;;;4803049;29;20050;-85
2023/08/22 02:20:40;;;;;;;6.93;6.20;;;16.80;99.90;;;;;;4806587;29;20046;-85
2023/08/22 02:23:05;;;;;;;7.95;5.93;;;16.70;99.90;;;;;;4833984;29;20116;-85
2023/08/22 02:25:35;;;;;;;7.05;6.05;;;16.80;99.90;;;;;;4808459;29;20046;-85
2023/08/22 02:28:02;;;;;;;9.55;5.82;;;16.80;99.90;;;;;;4827725;29;20504;-85
2023/08/22 02:30:28;;;;;;;7.35;5.32;;;16.70;99.90;;;;;;4858667;29;20088;-85
2023/08/22 02:32:53;;;;;;;4.72;4.30;;;16.70;99.90;;;;;;4842547;29;20077;-85
2023/08/22 02:35:22;;;;;;;4.35;3.60;;;16.60;99.90;;;;;;4824615;29;20371;-85
2023/08/22 02:37:49;;;;;;;4.50;4.10;;;16.50;99.90;;;;;;4821227;29;20121;-85
2023/08/22 02:40:15;;;;;;;5.07;4.40;;;16.50;99.90;;;;;;4821325;29;20045;-85
2023/08/22 02:42:40;;;;;;;4.35;3.90;;;16.40;99.90;;;;;;4827315;29;20038;-85
2023/08/22 02:45:06;;;;;;;4.78;3.38;;;16.40;99.90;;;;;;4835697;29;20045;-85
2023/08/22 02:47:32;;;;;;;3.88;3.53;;;16.40;99.90;;;;;;4797281;29;20042;-85
2023/08/22 02:49:58;;;;;;;4.05;3.47;;;16.30;99.90;;;;;;4794324;29;20053;-85
2023/08/22 02:52:24;;;;;;;4.93;4.43;;;16.30;99.90;;;;;;4831097;29;20514;-84
2023/08/22 02:54:51;;;;;;;8.90;5.22;;;16.30;99.90;;;;;;4865551;29;20083;-85
2023/08/22 02:57:16;;;;;;;5.40;4.63;;;16.30;99.90;;;;;;4850904;29;20067;-85
2023/08/22 02:59:42;;;;;;;6.25;4.35;;;16.30;99.90;;;;;;4814918;29;20050;-85
2023/08/22 03:02:08;;;;;;;5.60;5.05;;;16.20;99.90;;;;;;4829454;29;20049;-83
2023/08/22 03:04:36;;;;;;;7.68;5.60;;;16.20;99.90;;;;;;4799908;29;20045;-83
2023/08/22 03:07:06;;;;;;;7.47;5.70;;;16.20;99.90;;;;;;4810572;29;20537;-85
2023/08/22 03:09:32;;;;;;;7.80;5.65;;;16.30;99.90;;;;;;4815664;29;20569;-85
2023/08/22 03:11:58;;;;;;;8.45;5.53;;;16.30;99.90;;;;;;4847513;29;20049;-85
2023/08/22 03:14:25;;;;;;;5.60;4.07;;;16.40;99.90;;;;;;4828762;29;20410;-86
2023/08/22 03:16:51;;;;;;;4.63;4.07;;;16.40;99.90;;;;;;4840158;29;20386;-85
2023/08/22 03:19:16;;;;;;;8.25;4.35;;;16.40;99.90;;;;;;4827908;29;20186;-85
2023/08/22 03:21:42;;;;;;;6.07;5.10;;;16.40;99.90;;;;;;4829816;29;20047;-85
2023/08/22 03:24:08;;;;;;;6.13;4.95;;;16.40;99.90;;;;;;4814651;29;20041;-85
2023/08/22 03:26:33;;;;;;;6.05;4.40;;;16.40;99.90;;;;;;4848919;29;20049;-85
2023/08/22 03:28:59;;;;;;;5.85;4.80;;;16.40;99.90;;;;;;4798844;29;20042;-86
2023/08/22 03:31:28;;;;;;;7.57;5.28;;;16.40;99.90;;;;;;4807818;29;20042;-86
2023/08/22 03:33:54;;;;;;;7.90;5.68;;;16.40;99.90;;;;;;4815576;29;20033;-85
2023/08/22 03:36:20;;;;;;;6.72;5.95;;;16.40;99.90;;;;;;4828234;29;20050;-85
2023/08/22 03:38:50;;;;;;;8.82;5.82;;;16.40;99.90;;;;;;4839626;29;20103;-85
2023/08/22 03:41:19;;;;;;;6.40;5.35;;;16.40;99.90;;;;;;4848880;29;20046;-85
2023/08/22 03:43:45;;;;;;;7.43;5.93;;;16.40;99.90;;;;;;4833733;29;20049;-85
2023/08/22 03:46:11;;;;;;;6.68;5.85;;;16.40;99.90;;;;;;4836779;29;20517;-84
2023/08/22 03:48:37;;;;;;;7.85;5.70;;;16.40;99.90;;;;;;4805748;29;20122;-86
2023/08/22 03:51:06;;;;;;;8.98;6.20;;;16.30;99.90;;;;;;4828754;29;20488;-86
2023/08/22 03:53:34;;;;;;;9.18;5.88;;;16.30;99.90;;;;;;4819214;29;20052;-86
2023/08/22 03:56:00;;;;;;;8.02;6.10;;;16.30;99.90;;;;;;4819050;29;20046;-86
2023/08/22 03:58:26;;;;;;;6.47;5.68;;;16.30;99.90;;;;;;4837935;29;20098;-86
2023/08/22 04:00:59;;;;;;;7.65;5.45;;;16.30;99.90;;;;;;4835784;29;20101;-86
2023/08/22 04:03:25;;;;;;;8.38;6.03;;;16.30;99.90;;;;;;4870140;29;20057;-85
2023/08/22 04:05:51;;;;;;;6.95;5.50;;;16.30;99.90;;;;;;4837158;29;20034;-86
2023/08/22 04:08:17;;;;;;;7.38;5.40;;;16.20;99.90;;;;;;4850966;29;20136;-85
2023/08/22 04:10:43;;;;;;;5.80;5.07;;;16.20;99.90;;;;;;4845414;29;20136;-85
2023/08/22 04:13:08;;;;;;;6.50;4.80;;;16.20;99.90;;;;;;4807811;29;20049;-86
2023/08/22 04:15:35;;;;;;;5.55;4.95;;;16.10;99.90;;;;;;4819844;29;20107;-85
2023/08/22 04:18:01;;;;;;;6.10;4.68;;;16.10;99.90;;;;;;4797754;29;20494;-85
2023/08/22 04:20:27;;;;;;;4.10;3.15;;;16.00;99.90;;;;;;4816972;29;20052;-85
2023/08/22 04:22:53;;;;;;;3.88;2.83;;;16.00;99.90;;;;;;4810658;29;20088;-85
2023/08/22 04:25:18;;;;;;;3.03;2.40;;;16.00;99.90;;;;;;4837841;29;20129;-84
2023/08/22 04:27:44;;;;;;;3.28;2.67;;;16.00;99.90;;;;;;4836893;29;20741;-85
2023/08/22 04:30:10;;;;;;;3.33;2.97;;;15.90;99.90;;;;;;4855122;29;20041;-84
2023/08/22 04:32:36;;;;;;;5.50;4.57;;;15.90;99.90;;;;;;4829567;29;20041;-86
2023/08/22 04:35:01;;;;;;;5.03;4.53;;;15.90;99.90;;;;;;4838916;29;20080;-85
2023/08/22 04:37:27;;;;;;;4.38;3.97;;;15.90;99.90;;;;;;4850789;29;20097;-84
2023/08/22 04:39:53;;;;;;;6.80;4.60;;;15.90;99.90;;;;;;4836713;29;20176;-85
2023/08/22 04:42:18;;;;;;;6.22;5.00;;;15.90;99.90;;;;;;4798547;29;20045;-85
2023/08/22 04:44:44;;;;;;;6.90;5.28;;;15.90;99.90;;;;;;4845135;29;20393;-86
2023/08/22 04:47:10;;;;;;;8.02;5.40;;;15.90;99.90;;;;;;4842997;29;20038;-86
2023/08/22 04:49:35;;;;;;;7.20;5.35;;;15.90;99.90;;;;;;4817003;29;20182;-86
2023/08/22 04:52:02;;;;;;;8.88;6.00;;;15.90;99.90;;;;;;4828371;29;20490;-85
2023/08/22 04:54:27;;;;;;;6.60;5.43;;;15.90;99.90;;;;;;4829955;29;20557;-85
2023/08/22 04:56:53;;;;;;;6.10;5.13;;;15.90;99.90;;;;;;4828023;29;20133;-84
2023/08/22 04:59:19;;;;;;;6.13;3.80;;;16.00;99.90;;;;;;4822225;29;20224;-85
2023/08/22 05:01:44;;;;;;;4.38;3.58;;;16.00;99.90;;;;;;4825126;29;20060;-85
2023/08/22 05:04:10;;;;;;;4.43;3.97;;;16.00;99.90;;;;;;4829862;29;20113;-86
2023/08/22 05:06:36;;;;;;;5.90;4.00;;;16.00;99.90;;;;;;4833579;29;20061;-86
2023/08/22 05:09:02;;;;;;;4.35;3.60;;;16.00;99.90;;;;;;4845919;29;20097;-86
2023/08/22 05:11:28;;;;;;;4.28;3.53;;;16.00;99.90;;;;;;4832989;29;20041;-85
2023/08/22 05:13:54;;;;;;;6.13;4.40;;;16.10;99.90;;;;;;4831154;29;20044;-85
2023/08/22 05:16:20;;;;;;;6.43;4.20;;;16.10;99.90;;;;;;4817251;29;20077;-86
2023/08/22 05:18:45;;;;;;;4.63;4.03;;;16.20;99.90;;;;;;4832421;29;20483;-85
2023/08/22 05:21:11;;;;;;;5.80;4.47;;;16.30;99.90;;;;;;4806927;29;20041;-84
2023/08/22 05:23:37;;;;;;;8.38;5.30;;;16.40;99.90;;;;;;4811979;29;20136;-83
2023/08/22 05:26:03;;;;;;;5.65;4.35;;;16.50;99.90;;;;;;4837860;29;20041;-84
2023/08/22 05:28:28;;;;;;;8.70;5.38;;;16.60;99.90;;;;;;4849172;29;20108;-84
2023/08/22 05:30:54;;;;;;;7.57;5.05;;;16.80;99.90;;;;;;4799297;29;20068;-85
2023/08/22 05:33:20;;;;;;;6.40;4.72;;;16.90;99.90;;;;;;4799010;29;20095;-85
2023/08/22 05:35:45;;;;;;;7.15;4.93;;;17.10;99.90;;;;;;4805125;29;20046;-84
2023/08/22 05:38:12;;;;;;;8.25;5.35;;;17.20;99.90;;;;;;4842767;29;20555;-84
2023/08/22 05:40:38;;;;;;;7.18;4.38;;;17.30;99.90;;;;;;4816917;29;20490;-85
2023/08/22 05:43:04;;;;;;;7.43;4.43;;;17.50;99.90;;;;;;4797245;29;20048;-84
2023/08/22 05:45:29;;;;;;;5.65;4.90;;;17.60;99.90;;;;;;4827863;29;20176;-85
2023/08/22 05:47:55;;;;;;;7.70;4.47;;;17.70;99.90;;;;;;4810441;29;20057;-84
2023/08/22 05:50:21;;;;;;;7.20;4.75;;;17.70;99.90;;;;;;4845190;29;20045;-84
2023/08/22 05:52:46;;;;;;;6.35;4.80;;;17.90;99.90;;;;;;4848919;29;20048;-84
2023/08/22 05:55:12;;;;;;;6.55;4.82;;;18.00;99.90;;;;;;4845124;29;20465;-84
2023/08/22 05:57:38;;;;;;;6.05;4.32;;;18.30;99.90;;;;;;4823788;29;20049;-84
2023/08/22 06:00:04;;;;;;;7.28;4.00;;;18.60;99.90;;;;;;4817207;29;20072;-84
2023/08/22 06:02:30;;;;;;;8.05;4.38;;;18.90;99.90;;;;;;4823114;29;20054;-84
2023/08/22 06:04:55;;;;;;;8.20;4.55;;;19.10;99.90;;;;;;4808794;29;20144;-84
2023/08/22 06:07:21;;;;;;;6.10;3.80;;;19.40;99.90;;;;;;4840270;29;20070;-83
2023/08/22 06:09:47;;;;;;;5.03;3.63;;;19.40;99.90;;;;;;4826409;29;20512;-84
2023/08/22 06:12:13;;;;;;;5.80;4.05;;;19.50;99.90;;;;;;4815734;29;20140;-84
2023/08/22 06:14:38;;;;;;;4.68;3.33;;;19.70;99.90;;;;;;4815585;29;20045;-85
2023/08/22 06:17:04;;;;;;;5.10;3.40;;;19.80;99.90;;;;;;4829924;29;20084;-85
2023/08/22 06:19:30;;;;;;;4.47;3.45;;;20.10;99.90;;;;;;4852208;29;20097;-84
2023/08/22 06:21:56;;;;;;;4.43;2.97;;;20.60;99.90;;;;;;4822738;29;20397;-84
2023/08/22 06:24:21;;;;;;;6.70;3.22;;;21.10;99.90;;;;;;4849256;29;20038;-85
2023/08/22 06:26:48;;;;;;;6.22;3.35;;;21.90;99.90;;;;;;4833643;29;20101;-85
2023/08/22 06:29:13;;;;;;;5.25;2.92;;;22.60;99.90;;;;;;4834471;29;20049;-84
2023/08/22 06:31:39;;;;;;;5.72;3.00;;;22.50;99.90;;;;;;4814429;29;20525;-84
2023/08/22 06:34:05;;;;;;;6.87;2.83;;;22.30;99.90;;;;;;4818541;29;20049;-84
2023/08/22 06:36:31;;;;;;;7.22;3.22;;;21.90;99.90;;;;;;4823429;29;20045;-84
2023/08/22 06:38:56;;;;;;;4.50;2.67;;;21.60;99.90;;;;;;4805721;29;20097;-84
2023/08/22 06:41:22;;;;;;;5.07;3.45;;;21.60;99.90;;;;;;4834269;29;20568;-84
2023/08/22 06:43:48;;;;;;;5.88;2.97;;;21.70;99.90;;;;;;4823222;29;20037;-84
2023/08/22 06:46:15;;;;;;;5.05;3.05;;;22.00;99.90;;;;;;4834008;29;20050;-85
2023/08/22 06:48:41;;;;;;;4.05;2.92;;;22.60;99.90;;;;;;4850449;29;20896;-85
2023/08/22 06:51:07;;;;;;;5.13;2.70;;;23.30;99.90;;;;;;4834922;29;20049;-85
2023/08/22 06:53:33;;;;;;;4.50;2.17;;;24.20;99.90;;;;;;4817547;29;20050;-86
2023/08/22 06:55:59;;;;;;;4.63;2.63;;;24.40;99.90;;;;;;4831496;29;20037;-85
2023/08/22 06:58:24;;;;;;;4.25;2.80;;;24.20;99.90;;;;;;4836065;29;20041;-84
2023/08/22 07:00:50;;;;;;;3.63;2.25;;;23.80;99.90;;;;;;4849900;29;20069;-84
2023/08/22 07:03:16;;;;;;;7.80;2.80;;;23.50;99.90;;;;;;4839179;29;20061;-85
2023/08/22 07:05:42;;;;;;;4.90;2.67;;;23.40;99.90;;;;;;4834852;29;20037;-84
2023/08/22 07:08:07;;;;;;;2.80;1.90;;;23.70;99.90;;;;;;4820948;29;20038;-84
2023/08/22 07:10:34;;;;;;;3.03;2.10;;;24.00;99.90;;;;;;4835400;29;20064;-85
2023/08/22 07:13:00;;;;;;;8.27;2.42;;;24.00;99.90;;;;;;4848418;29;20746;-85
2023/08/22 07:15:26;;;;;;;5.40;2.30;;;23.80;99.90;;;;;;4834949;29;20046;-85
2023/08/22 07:17:52;;;;;;;4.97;2.17;;;23.90;99.90;;;;;;4839052;29;20562;-85
2023/08/22 07:20:18;;;;;;;4.67;1.97;;;24.10;99.90;;;;;;4829368;29;20097;-85
2023/08/22 07:22:44;;;;;;;2.57;1.80;;;24.10;99.90;;;;;;4832534;29;20556;-85
2023/08/22 07:25:10;;;;;;;4.82;1.98;;;23.80;99.90;;;;;;4834914;29;20059;-84
2023/08/22 07:27:35;;;;;;;4.63;2.23;;;24.00;99.90;;;;;;4813852;29;20596;-85
2023/08/22 07:30:03;;;;;;;2.67;1.70;;;24.50;99.90;;;;;;4841359;29;20052;-85
2023/08/22 07:32:29;;;;;;;3.60;1.77;;;25.10;99.90;;;;;;4812990;29;20485;-85
2023/08/22 07:34:55;;;;;;;2.43;1.80;;;25.20;99.90;;;;;;4824514;29;20126;-84
2023/08/22 07:37:22;;;;;;;2.83;1.70;;;24.80;99.90;;;;;;4828190;29;20485;-85
2023/08/22 07:39:48;;;;;;;3.97;1.73;;;24.40;99.90;;;;;;4824524;29;20502;-86
2023/08/22 07:42:13;;;;;;;2.83;1.60;;;24.20;99.90;;;;;;4852444;29;20038;-85
2023/08/22 07:44:39;;;;;;;3.13;1.97;;;24.10;99.90;;;;;;4802758;29;20136;-86
2023/08/22 07:47:05;;;;;;;4.07;2.00;;;24.00;99.90;;;;;;4829373;29;20418;-85
2023/08/22 07:49:31;;;;;;;2.73;1.77;;;24.30;99.90;;;;;;4831809;29;20501;-85
2023/08/22 07:51:57;;;;;;;3.20;1.77;;;25.10;99.90;;;;;;4816871;29;20049;-86
2023/08/22 07:54:23;;;;;;;4.00;1.58;;;25.60;99.90;;;;;;4831733;29;20064;-85
2023/08/22 07:56:49;;;;;;;2.23;1.40;;;25.90;99.90;;;;;;4836133;29;20045;-85
2023/08/22 07:59:15;;;;;;;2.77;1.53;;;26.20;99.90;;;;;;4839743;29;20389;-85
2023/08/22 08:01:41;;;;;;;3.03;1.60;;;26.10;99.90;;;;;;4831784;29;20045;-85
2023/08/22 08:04:08;;;;;;;3.78;1.67;;;25.60;99.90;;;;;;4846274;29;20442;-85
2023/08/22 08:06:35;;;;;;;2.25;1.20;;;25.20;99.90;;;;;;4814620;29;20401;-85
2023/08/22 08:09:02;;;;;;;2.90;1.50;;;25.00;99.90;;;;;;4847952;29;20053;-86
2023/08/22 08:11:29;;;;;;;3.45;1.20;;;25.30;99.90;;;;;;4827943;29;20065;-86
2023/08/22 08:13:55;;;;;;;2.63;1.25;;;25.80;99.90;;;;;;4822377;29;20490;-86
2023/08/22 08:16:21;;;;;;;3.28;1.00;;;26.70;99.90;;;;;;4817395;29;20038;-86
2023/08/22 08:18:47;;;;;;;2.20;1.03;;;27.60;99.90;;;;;;4828993;29;20097;-86
2023/08/22 08:21:12;;;;;;;1.53;0.90;;;28.30;99.90;;;;;;4816929;29;20132;-85
2023/08/22 08:23:38;;;;;;;2.00;1.20;;;28.70;99.90;;;;;;4834862;29;20042;-85
2023/08/22 08:26:05;;;;;;;2.17;0.90;;;29.00;99.90;;;;;;4828698;29;20094;-85
2023/08/22 08:28:31;;;;;;;3.08;1.27;;;29.20;99.90;;;;;;4845907;29;20115;-85
2023/08/22 08:30:57;;;;;;;4.18;1.67;;;29.50;99.90;;;;;;4826294;29;20124;-84
2023/08/22 08:33:22;;;;;;;3.50;1.03;;;29.60;99.90;;;;;;4807499;29;20125;-85
2023/08/22 08:35:48;;;;;;;2.93;1.20;;;29.80;99.90;;;;;;4824032;29;20056;-85
2023/08/22 08:38:14;;;;;;;2.53;1.10;;;29.90;99.90;;;;;;4842228;29;20069;-85
2023/08/22 08:40:42;;;;;;;2.27;1.20;;;29.90;99.90;;;;;;4826777;29;20049;-87
2023/08/22 08:43:08;;;;;;;3.53;1.10;;;29.70;99.90;;;;;;4826714;29;20394;-83
2023/08/22 08:45:34;;;;;;;2.75;1.13;;;29.80;99.90;;;;;;4838665;29;20045;-83
2023/08/22 08:48:02;;;;;;;2.50;1.40;;;29.90;99.90;;;;;;4848788;29;20047;-86
2023/08/22 08:50:30;;;;;;;2.97;1.45;;;29.50;99.80;;;;;;4840061;29;20045;-85
2023/08/22 08:52:56;;;;;;;2.40;1.00;;;29.10;99.90;;;;;;4850119;29;20041;-84
2023/08/22 08:55:22;;;;;;;4.40;1.13;;;28.40;99.90;;;;;;4832326;29;20056;-84
2023/08/22 08:57:48;;;;;;;2.07;0.93;;;27.70;99.90;;;;;;4830806;29;20488;-85
2023/08/22 09:00:15;;;;;;;2.37;1.20;;;27.50;99.90;;;;;;4843971;29;20182;-85
2023/08/22 09:02:41;;;;;;;3.10;1.35;;;27.60;99.90;;;;;;4849955;29;20057;-85
2023/08/22 09:05:09;;;;;;;2.67;1.00;;;27.50;99.90;;;;;;4826128;29;20057;-83
2023/08/22 09:07:35;;;;;;;2.55;0.90;;;27.50;99.90;;;;;;4843333;29;20048;-85
2023/08/22 09:10:02;;;;;;;2.00;1.08;;;27.40;99.90;;;;;;4817219;29;20041;-85
2023/08/22 09:12:36;;;;;;;1.95;0.88;;;27.10;99.90;;;;;;4858821;29;20049;-85
2023/08/22 09:15:02;;;;;;;1.63;1.00;;;26.70;99.90;;;;;;4849958;29;20052;-81
2023/08/22 09:17:29;;;;;;;1.30;0.70;;;26.40;99.90;;;;;;4843098;29;20049;-85
2023/08/22 09:19:56;;;;;;;1.67;0.70;;;26.10;99.90;;;;;;4828066;29;20045;-85
2023/08/22 09:22:30;;;;;;;1.70;0.70;;;25.80;99.90;;;;;;4827511;29;20090;-83
2023/08/22 09:24:56;;;;;;;1.98;0.70;;;25.50;99.90;;;;;;4835628;29;20113;-85
2023/08/22 09:27:24;;;;;;;2.47;0.60;;;25.40;99.90;;;;;;4841407;29;20042;-85
2023/08/22 09:29:50;;;;;;;1.88;0.70;;;25.30;99.90;;;;;;4829951;29;20053;-85
2023/08/22 09:32:16;;;;;;;2.65;0.60;;;25.30;99.90;;;;;;4821590;29;20554;-85
2023/08/22 09:34:53;;;;;;;2.87;0.93;;;25.20;99.90;;;;;;4827988;29;20473;-84
2023/08/22 09:37:36;;;;;;;0.77;0.50;;;25.20;99.90;;;;;;4829036;29;20458;-83
2023/08/22 09:40:07;;;;;;;5.47;0.90;;;25.30;99.90;;;;;;4827651;29;20113;-85
2023/08/22 09:42:38;;;;;;;2.08;0.73;;;25.40;99.90;;;;;;4833953;29;20049;-83
2023/08/22 09:45:05;;;;;;;2.22;0.85;;;25.50;99.90;;;;;;4840755;29;20455;-84
2023/08/22 09:47:32;;;;;;;2.20;0.90;;;25.70;99.90;;;;;;4817824;29;20052;-86
2023/08/22 09:50:04;;;;;;;1.90;0.90;;;25.90;99.90;;;;;;4832881;29;20571;-85
2023/08/22 09:52:30;;;;;;;2.65;0.63;;;25.90;99.90;;;;;;4828955;29;20049;-83
2023/08/22 09:54:57;;;;;;;3.65;0.80;;;25.70;99.90;;;;;;4822388;29;20045;-84
2023/08/22 09:57:26;;;;;;;2.03;1.08;;;25.60;99.90;;;;;;4852386;29;20405;-84
2023/08/22 09:59:51;;;;;;;3.60;1.10;;;25.40;99.90;;;;;;4834445;29;20485;-85
2023/08/22 10:02:21;;;;;;;3.70;1.13;;;25.40;99.90;;;;;;4831700;29;20049;-86
2023/08/22 10:04:47;;;;;;;3.03;1.20;;;25.50;99.90;;;;;;4821857;29;20136;-86
2023/08/22 10:07:13;;;;;;;2.20;0.97;;;25.50;99.90;;;;;;4835228;29;20537;-85
2023/08/22 10:09:40;;;;;;;2.90;1.10;;;25.70;99.90;;;;;;4860711;29;20101;-85
2023/08/22 10:12:10;;;;;;;2.75;1.00;;;25.80;99.90;;;;;;4847048;29;20478;-84
2023/08/22 10:14:43;;;;;;;1.65;1.00;;;25.80;99.90;;;;;;4865613;29;20045;-85
2023/08/22 10:17:15;;;;;;;1.63;1.00;;;25.80;99.90;;;;;;4833546;29;20068;-87
2023/08/22 10:19:42;;;;;;;1.92;0.98;;;25.80;99.90;;;;;;4822275;29;20084;-84
2023/08/22 10:22:15;;;;;;;2.25;0.82;;;25.70;99.90;;;;;;4831966;29;20695;-85
2023/08/22 10:24:41;;;;;;;2.25;1.10;;;25.80;99.90;;;;;;4826702;29;20061;-85
2023/08/22 10:27:11;;;;;;;1.60;0.70;;;25.80;99.90;;;;;;4827619;29;20102;-84
2023/08/22 10:29:45;;;;;;;3.90;1.80;;;25.80;99.90;;;;;;4838389;29;20060;-84
2023/08/22 10:32:10;;;;;;;2.40;1.40;;;25.90;99.90;;;;;;4845089;29;20053;-85
2023/08/22 10:34:39;;;;;;;2.57;1.47;;;26.00;99.90;;;;;;4829849;29;20049;-85
2023/08/22 10:37:26;;;;;;;2.30;1.25;;;25.90;99.90;;;;;;4844726;29;20088;-85
2023/08/22 10:39:55;;;;;;;3.10;1.27;;;26.00;99.90;;;;;;4827702;29;20145;-83
2023/08/22 10:42:22;;;;;;;3.63;1.48;;;26.10;99.90;;;;;;4814860;29;20124;-84
2023/08/22 10:44:53;;;;;;;2.95;1.50;;;26.30;99.90;;;;;;4833673;29;20045;-84
2023/08/22 10:47:32;;;;;;;2.58;0.98;;;26.40;99.90;;;;;;4829966;29;20037;-86
2023/08/22 10:50:00;;;;;;;4.88;1.50;;;26.60;99.90;;;;;;4827624;29;20493;-82
2023/08/22 10:52:32;;;;;;;2.00;1.00;;;26.70;99.90;;;;;;4851367;29;20045;-83
2023/08/22 10:55:00;;;;;;;2.50;1.30;;;26.90;99.90;;;;;;4820856;29;20052;-84
2023/08/22 10:57:32;;;;;;;4.25;1.27;;;26.80;99.90;;;;;;4827829;29;20097;-85
2023/08/22 11:00:22;;;;;;;2.45;1.10;;;26.70;99.90;;;;;;4829026;29;20050;-90
2023/08/22 11:02:55;;;;;;;3.20;0.95;;;26.70;99.90;;;;;;4842264;29;20056;-85
2023/08/22 11:05:22;;;;;;;2.45;0.98;;;26.80;99.90;;;;;;4800543;29;1205232;-83
2023/08/22 11:07:48;;;;;;;2.05;0.90;;;26.90;99.90;;;;;;4813488;29;20065;-86
2023/08/22 11:10:33;;;;;;;2.15;0.90;;;27.00;99.90;;;;;;4815052;29;20121;-84
2023/08/22 11:13:07;;;;;;;3.28;1.00;;;27.10;99.90;;;;;;4824367;29;20088;-84
2023/08/22 11:15:33;;;;;;;2.05;1.15;;;27.30;99.90;;;;;;4836415;29;20128;-84
2023/08/22 11:17:59;;;;;;;2.30;1.30;;;27.30;99.90;;;;;;4819890;29;20268;-85
2023/08/22 11:20:25;;;;;;;4.03;1.37;;;27.30;99.90;;;;;;4823158;29;20049;-86
2023/08/22 11:22:53;;;;;;;4.68;1.15;;;27.20;99.90;;;;;;4851531;29;20069;-85
2023/08/22 11:25:24;;;;;;;1.92;0.90;;;27.00;99.90;;;;;;4839621;29;20042;-84
2023/08/22 11:27:49;;;;;;;2.88;1.02;;;27.00;99.90;;;;;;4812467;29;20430;-83
2023/08/22 11:30:18;;;;;;;1.80;0.90;;;26.70;99.90;;;;;;4812432;29;20050;-84
2023/08/22 11:32:44;;;;;;;2.67;1.33;;;26.70;99.90;;;;;;4838286;29;20423;-85
2023/08/22 11:35:11;;;;;;;3.25;1.20;;;26.50;99.90;;;;;;4844006;29;20537;-84
2023/08/22 11:37:41;;;;;;;2.95;1.15;;;26.30;99.90;;;;;;4856949;29;20053;-86
2023/08/22 11:40:12;;;;;;;2.38;1.00;;;26.20;99.90;;;;;;4851556;29;20085;-82
2023/08/22 11:42:39;;;;;;;1.50;0.77;;;26.30;99.90;;;;;;4844701;29;20136;-81
2023/08/22 11:45:10;;;;;;;2.47;0.82;;;26.50;99.90;;;;;;4833512;29;20462;-83
2023/08/22 11:47:44;;;;;;;2.53;0.70;;;26.70;99.90;;;;;;4820440;29;20133;-82
2023/08/22 11:50:17;;;;;;;1.98;0.80;;;26.90;99.90;;;;;;4827875;29;20056;-84
2023/08/22 11:52:44;;;;;;;2.35;0.60;;;27.10;99.90;;;;;;4844297;29;20046;-85
2023/08/22 11:55:12;;;;;;;1.55;0.50;;;27.10;99.90;;;;;;4828239;29;20757;-86
2023/08/22 11:57:39;;;;;;;2.80;0.70;;;27.10;99.90;;;;;;4838999;29;20489;-82
2023/08/22 12:00:07;;;;;;;3.95;0.70;;;27.00;99.90;;;;;;4835621;29;20117;-85
2023/08/22 12:02:33;;;;;;;1.30;0.52;;;27.00;99.90;;;;;;4831932;29;20049;-86
2023/08/22 12:04:59;;;;;;;1.70;0.70;;;26.90;99.90;;;;;;4802628;29;20038;-84
2023/08/22 12:07:25;;;;;;;1.58;0.73;;;26.70;99.90;;;;;;4836027;29;20506;-84
2023/08/22 12:10:12;;;;;;;1.85;0.65;;;26.50;99.90;;;;;;4831302;29;20049;-84
2023/08/22 12:12:38;;;;;;;1.80;0.90;;;26.20;99.90;;;;;;4826690;29;20056;-83
2023/08/22 12:15:04;;;;;;;2.08;0.90;;;25.90;99.90;;;;;;4836470;29;20049;-83
2023/08/22 12:17:31;;;;;;;2.47;0.90;;;25.70;99.90;;;;;;4837706;29;20521;-84
2023/08/22 12:19:56;;;;;;;;;;;25.60;99.90;;;;;;4830294;29;20494;-83
2023/08/22 12:22:22;;;;;;;1.83;0.60;;;25.50;99.90;;;;;;4829647;29;19927;-85
2023/08/22 12:24:48;;;;;;;1.37;0.50;;;25.40;99.90;;;;;;4820701;29;20135;-84
2023/08/22 12:27:14;;;;;;;1.67;0.40;;;25.30;99.90;;;;;;4836828;29;20054;-84
2023/08/22 12:29:41;;;;;;;1.92;0.40;;;25.20;99.90;;;;;;4841125;29;20049;-84
2023/08/22 12:32:07;;;;;;;3.08;0.60;;;25.30;99.90;;;;;;4812517;29;20101;-85
2023/08/22 12:34:33;;;;;;;2.47;0.70;;;25.40;99.90;;;;;;4829232;29;20049;-85
2023/08/22 12:36:59;;;;;;;1.30;0.40;;;25.40;99.90;;;;;;4828745;29;20514;-84
2023/08/22 12:39:25;;;;;;;2.17;0.53;;;25.50;99.90;;;;;;4851306;29;20056;-83
2023/08/22 12:41:50;;;;;;;2.33;0.50;;;25.50;99.90;;;;;;4841211;29;20038;-84
2023/08/22 12:44:16;;;;;;;3.67;0.60;;;25.50;99.90;;;;;;4809321;29;20043;-84
2023/08/22 12:46:42;;;;;;;0.90;0.43;;;25.50;99.90;;;;;;4836172;29;20053;-86